Time;durP1;ratioP1;P1;durP2;ratioP2;P2;SDS_P1;SDS_P2;PMS_P1;PMS_P2;Temp;Humidity;BMP_temperature;BMP_pressure;BME280_temperature;BME280_humidity;BME280_pressure;Samples;Min_cycle;Max_cycle;Signal;HPM_P1;HPM_P2
2022/08/09 00:02:52;;;;;;;;;;;27.40;37.40;;;;;;8363353;28;19917;-46
2022/08/09 00:06:52;;;;;;;;;;;27.30;37.30;;;;;;8363437;28;20018;-44
2022/08/09 00:10:53;;;;;;;;;;;27.30;37.30;;;;;;8363082;28;19913;-45
2022/08/09 00:14:53;;;;;;;;;;;27.30;37.30;;;;;;8363944;28;19925;-46
2022/08/09 00:18:54;;;;;;;;;;;27.30;37.30;;;;;;8363264;28;19916;-45
2022/08/09 00:22:54;;;;;;;;;;;27.30;37.40;;;;;;8362838;28;20011;-44
2022/08/09 00:26:55;;;;;;;;;;;27.30;37.30;;;;;;8363937;28;19948;-45
2022/08/09 00:30:57;;;;;;;;;;;27.30;37.40;;;;;;8363165;28;19920;-45
2022/08/09 00:34:57;;;;;;;;;;;27.30;37.40;;;;;;8362764;28;19921;-45
2022/08/09 00:38:58;;;;;;;;;;;27.30;37.40;;;;;;8363005;28;20361;-45
2022/08/09 00:42:58;;;;;;;;;;;27.30;37.40;;;;;;8362878;28;19970;-45
2022/08/09 00:46:58;;;;;;;;;;;27.30;37.40;;;;;;8362470;28;19932;-45
2022/08/09 00:50:59;;;;;;;;;;;27.30;37.40;;;;;;8362867;28;19920;-44
2022/08/09 00:55:00;;;;;;;;;;;27.20;37.40;;;;;;8362985;28;19921;-45
2022/08/09 00:59:01;;;;;;;;;;;27.20;37.30;;;;;;8362395;28;20277;-45
2022/08/09 01:03:01;;;;;;;;;;;27.20;37.40;;;;;;8362781;28;19917;-45
2022/08/09 01:07:20;;;;;;;;;;;27.20;37.40;;;;;;8337780;28;19956;-45
2022/08/09 01:11:39;;;;;;;;;;;27.20;37.40;;;;;;8362044;28;19920;-44
2022/08/09 01:15:42;;;;;;;;;;;27.20;37.40;;;;;;8365019;28;20400;-44
2022/08/09 01:19:46;;;;;;;;;;;27.20;37.40;;;;;;8368604;28;19917;-44
2022/08/09 01:23:56;;;;;;;;;;;27.20;37.40;;;;;;8367953;28;19920;-45
2022/08/09 01:27:57;;;;;;;;;;;27.10;37.40;;;;;;8368537;28;19921;-45
2022/08/09 01:31:59;;;;;;;;;;;27.10;37.40;;;;;;8367760;28;19932;-44
2022/08/09 01:36:05;;;;;;;;;;;27.10;37.40;;;;;;8368589;28;20357;-45
2022/08/09 01:40:07;;;;;;;;;;;27.10;37.40;;;;;;8368153;28;19921;-44
2022/08/09 01:44:08;;;;;;;;;;;27.10;37.40;;;;;;8367406;28;19921;-45
2022/08/09 01:48:09;;;;;;;;;;;27.10;37.40;;;;;;8367676;28;19927;-45
2022/08/09 01:52:12;;;;;;;;;;;27.10;37.50;;;;;;8367469;28;19967;-45
2022/08/09 01:56:13;;;;;;;;;;;27.10;37.50;;;;;;8367259;28;19920;-44
2022/08/09 02:00:14;;;;;;;;;;;27.10;37.50;;;;;;8367407;28;19917;-45
2022/08/09 02:04:15;;;;;;;;;;;27.00;37.40;;;;;;8367232;28;19916;-44
2022/08/09 02:08:18;;;;;;;;;;;27.00;37.50;;;;;;8366670;28;20404;-45
2022/08/09 02:12:20;;;;;;;;;;;27.00;37.50;;;;;;8366760;28;19925;-45
2022/08/09 02:16:21;;;;;;;;;;;27.00;37.50;;;;;;8367159;28;19955;-46
2022/08/09 02:20:22;;;;;;;;;;;27.00;37.50;;;;;;8366348;28;19946;-45
2022/08/09 02:24:25;;;;;;;;;;;27.00;37.40;;;;;;8366827;28;20366;-44
2022/08/09 02:28:29;;;;;;;;;;;27.00;37.50;;;;;;8366456;28;19921;-45
2022/08/09 02:32:32;;;;;;;;;;;27.00;37.40;;;;;;8365834;28;20010;-44
2022/08/09 02:36:35;;;;;;;;;;;27.00;37.50;;;;;;8366450;28;19978;-45
2022/08/09 02:40:36;;;;;;;;;;;26.90;37.40;;;;;;8366162;28;19917;-44
2022/08/09 02:44:39;;;;;;;;;;;26.90;37.50;;;;;;8365512;28;19917;-45
2022/08/09 02:48:40;;;;;;;;;;;26.90;37.50;;;;;;8347998;28;19924;-45
2022/08/09 02:52:53;;;;;;;;;;;26.90;37.50;;;;;;8365657;28;19951;-44
2022/08/09 02:56:54;;;;;;;;;;;26.90;37.50;;;;;;8365245;28;19942;-45
2022/08/09 03:00:56;;;;;;;;;;;26.90;37.50;;;;;;8365689;28;19916;-45
2022/08/09 03:04:57;;;;;;;;;;;26.90;37.50;;;;;;8365120;28;19916;-45
2022/08/09 03:08:58;;;;;;;;;;;26.80;37.50;;;;;;8365275;28;19924;-48
2022/08/09 03:13:00;;;;;;;;;;;26.80;37.50;;;;;;8364867;28;19920;-44
2022/08/09 03:17:01;;;;;;;;;;;26.90;37.60;;;;;;8364753;28;19917;-45
2022/08/09 03:21:02;;;;;;;;;;;26.80;37.50;;;;;;8365478;28;19924;-45
2022/08/09 03:25:03;;;;;;;;;;;26.80;37.50;;;;;;8365061;28;20397;-45
2022/08/09 03:29:03;;;;;;;;;;;26.80;37.50;;;;;;8364122;28;20000;-45
2022/08/09 03:33:05;;;;;;;;;;;26.80;37.50;;;;;;8364479;28;19974;-45
2022/08/09 03:37:06;;;;;;;;;;;26.80;37.50;;;;;;8364385;28;19921;-44
2022/08/09 03:41:06;;;;;;;;;;;26.80;37.50;;;;;;8364339;28;19975;-46
2022/08/09 03:45:07;;;;;;;;;;;26.80;37.50;;;;;;8364398;28;19917;-45
2022/08/09 03:49:08;;;;;;;;;;;26.80;37.50;;;;;;8364223;28;19913;-44
2022/08/09 03:53:09;;;;;;;;;;;26.80;37.50;;;;;;8363835;28;19947;-44
2022/08/09 03:57:10;;;;;;;;;;;26.80;37.60;;;;;;8363944;28;19917;-44
2022/08/09 04:01:11;;;;;;;;;;;26.70;37.50;;;;;;8363610;28;20374;-45
2022/08/09 04:05:12;;;;;;;;;;;26.80;37.60;;;;;;8362249;28;19963;-46
2022/08/09 04:09:12;;;;;;;;;;;26.70;37.60;;;;;;8363304;28;19917;-45
2022/08/09 04:13:13;;;;;;;;;;;26.70;37.60;;;;;;8363598;28;19921;-44
2022/08/09 04:17:13;;;;;;;;;;;26.70;37.60;;;;;;8363074;28;19916;-45
2022/08/09 04:21:14;;;;;;;;;;;26.70;37.60;;;;;;8363243;28;19916;-45
2022/08/09 04:25:14;;;;;;;;;;;26.70;37.60;;;;;;8363566;28;19964;-45
2022/08/09 04:29:15;;;;;;;;;;;26.70;37.60;;;;;;8362974;28;19923;-45
2022/08/09 04:33:16;;;;;;;;;;;26.60;37.60;;;;;;8363311;28;19948;-44
2022/08/09 04:37:16;;;;;;;;;;;26.70;37.60;;;;;;8363453;28;19921;-44
2022/08/09 04:41:16;;;;;;;;;;;26.60;37.60;;;;;;8362656;28;19965;-44
2022/08/09 04:45:17;;;;;;;;;;;26.70;37.70;;;;;;8363450;28;19917;-44
2022/08/09 04:49:17;;;;;;;;;;;26.60;37.60;;;;;;8362967;28;19951;-44
2022/08/09 04:53:18;;;;;;;;;;;26.60;37.60;;;;;;8368870;28;19924;-44
2022/08/09 04:57:19;;;;;;;;;;;26.60;37.60;;;;;;8369837;28;20274;-45
2022/08/09 05:01:19;;;;;;;;;;;26.60;37.60;;;;;;8369377;28;20457;-45
2022/08/09 05:05:20;;;;;;;;;;;26.60;37.60;;;;;;8368426;28;20412;-44
2022/08/09 05:09:20;;;;;;;;;;;26.50;37.60;;;;;;8369174;28;19916;-44
2022/08/09 05:13:21;;;;;;;;;;;26.50;37.60;;;;;;8368681;28;20263;-44
2022/08/09 05:17:22;;;;;;;;;;;26.60;37.60;;;;;;8368470;28;20370;-45
2022/08/09 05:21:22;;;;;;;;;;;26.60;37.70;;;;;;8368636;28;20011;-44
2022/08/09 05:25:23;;;;;;;;;;;26.50;37.60;;;;;;8368489;28;20330;-44
2022/08/09 05:29:24;;;;;;;;;;;26.50;37.60;;;;;;8367704;28;19917;-44
2022/08/09 05:33:24;;;;;;;;;;;26.50;37.60;;;;;;8368063;28;19925;-44
2022/08/09 05:37:25;;;;;;;;;;;26.50;37.60;;;;;;8368525;28;19920;-44
2022/08/09 05:41:25;;;;;;;;;;;26.50;37.60;;;;;;8367354;28;19921;-44
2022/08/09 05:45:28;;;;;;;;;;;26.50;37.60;;;;;;8367807;28;19974;-44
2022/08/09 05:49:28;;;;;;;;;;;26.50;37.60;;;;;;8367633;28;19944;-45
2022/08/09 05:53:28;;;;;;;;;;;26.50;37.60;;;;;;8366953;28;19947;-46
2022/08/09 05:57:29;;;;;;;;;;;26.50;37.60;;;;;;8367711;28;19948;-45
2022/08/09 06:01:29;;;;;;;;;;;26.50;37.60;;;;;;8366877;28;19924;-46
2022/08/09 06:05:31;;;;;;;;;;;26.50;37.60;;;;;;8366542;28;20325;-45
2022/08/09 06:09:32;;;;;;;;;;;26.50;37.60;;;;;;8367113;28;19931;-44
2022/08/09 06:13:32;;;;;;;;;;;26.50;37.60;;;;;;8366861;28;20059;-44
2022/08/09 06:17:33;;;;;;;;;;;26.50;37.60;;;;;;8366440;28;19917;-45
2022/08/09 06:21:33;;;;;;;;;;;26.50;37.60;;;;;;8366870;28;20043;-45
2022/08/09 06:25:34;;;;;;;;;;;26.50;37.60;;;;;;8366628;28;19913;-44
2022/08/09 06:29:34;;;;;;;;;;;26.50;37.60;;;;;;8365793;28;19916;-44
2022/08/09 06:33:37;;;;;;;;;;;26.50;37.60;;;;;;8365692;28;21278;-46
2022/08/09 06:37:37;;;;;;;;;;;26.50;37.60;;;;;;8366148;28;19913;-45
2022/08/09 06:41:38;;;;;;;;;;;26.50;37.60;;;;;;8365476;28;19916;-45
2022/08/09 06:45:38;;;;;;;;;;;26.50;37.60;;;;;;8365776;28;19949;-44
2022/08/09 06:49:39;;;;;;;;;;;26.50;37.60;;;;;;8365727;28;20007;-45
2022/08/09 06:53:40;;;;;;;;;;;26.50;37.60;;;;;;8365062;28;19921;-45
2022/08/09 06:57:40;;;;;;;;;;;26.50;37.60;;;;;;8365841;28;19917;-44
2022/08/09 07:01:40;;;;;;;;;;;26.50;37.60;;;;;;8365355;28;20389;-45
2022/08/09 07:05:41;;;;;;;;;;;26.50;37.60;;;;;;8364602;28;19989;-44
2022/08/09 07:09:43;;;;;;;;;;;26.50;37.60;;;;;;8341859;28;20008;-44
2022/08/09 07:13:44;;;;;;;;;;;26.50;37.50;;;;;;8363976;28;19928;-43
2022/08/09 07:17:44;;;;;;;;;;;26.50;37.50;;;;;;8364196;28;19992;-43
2022/08/09 07:21:45;;;;;;;;;;;26.60;37.50;;;;;;8364668;28;19916;-45
2022/08/09 07:25:48;;;;;;;;;;;26.60;37.50;;;;;;8364620;28;19917;-46
2022/08/09 07:29:48;;;;;;;;;;;26.50;37.40;;;;;;8363970;28;19917;-43
2022/08/09 07:33:49;;;;;;;;;;;26.60;37.50;;;;;;8364257;28;19964;-43
2022/08/09 07:37:49;;;;;;;;;;;26.50;37.40;;;;;;8364309;28;19913;-43
2022/08/09 07:41:50;;;;;;;;;;;26.50;37.40;;;;;;8363732;28;19917;-44
2022/08/09 07:45:50;;;;;;;;;;;26.50;37.40;;;;;;8346029;28;19970;-44
2022/08/09 07:49:51;;;;;;;;;;;26.60;37.50;;;;;;8363701;28;20019;-42
2022/08/09 07:53:51;;;;;;;;;;;26.60;37.40;;;;;;8363824;28;19920;-44
2022/08/09 07:57:52;;;;;;;;;;;26.60;37.40;;;;;;8363808;28;20388;-44
2022/08/09 08:01:54;;;;;;;;;;;26.60;37.40;;;;;;8363086;28;19924;-44
2022/08/09 08:05:54;;;;;;;;;;;26.60;37.40;;;;;;8363716;28;19921;-44
2022/08/09 08:09:55;;;;;;;;;;;26.70;37.40;;;;;;8363577;28;20305;-43
2022/08/09 08:13:55;;;;;;;;;;;26.60;37.40;;;;;;8362741;28;19925;-43
2022/08/09 08:17:56;;;;;;;;;;;26.60;37.40;;;;;;8363448;28;19922;-43
2022/08/09 08:21:56;;;;;;;;;;;26.70;37.40;;;;;;8363445;28;20034;-44
2022/08/09 08:25:57;;;;;;;;;;;26.70;37.40;;;;;;8362366;28;20015;-44
2022/08/09 08:29:57;;;;;;;;;;;26.70;37.40;;;;;;8363121;28;20354;-45
2022/08/09 08:33:58;;;;;;;;;;;26.70;37.40;;;;;;8363053;28;19960;-44
2022/08/09 08:37:58;;;;;;;;;;;26.70;37.40;;;;;;8362632;28;20362;-44
2022/08/09 08:41:59;;;;;;;;;;;26.70;37.40;;;;;;8362719;28;19996;-44
2022/08/09 08:46:02;;;;;;;;;;;26.70;37.40;;;;;;8362603;28;19920;-44
2022/08/09 08:50:03;;;;;;;;;;;26.70;37.40;;;;;;8362319;28;20403;-44
2022/08/09 08:54:06;;;;;;;;;;;26.80;37.50;;;;;;8362868;28;19921;-44
2022/08/09 08:58:08;;;;;;;;;;;26.80;37.40;;;;;;8362655;28;20006;-44
2022/08/09 09:02:12;;;;;;;;;;;26.80;37.50;;;;;;8362124;28;19913;-45
2022/08/09 09:06:13;;;;;;;;;;;26.80;37.50;;;;;;8362204;28;19921;-44
2022/08/09 09:10:14;;;;;;;;;;;26.80;37.40;;;;;;8362594;28;19914;-43
2022/08/09 09:14:16;;;;;;;;;;;26.80;37.40;;;;;;8361991;28;19929;-43
2022/08/09 09:18:16;;;;;;;;;;;26.80;37.40;;;;;;8362297;28;19924;-44
2022/08/09 09:22:18;;;;;;;;;;;26.90;37.60;;;;;;8362024;28;19920;-45
2022/08/09 09:26:21;;;;;;;;;;;26.90;37.40;;;;;;8361514;28;19917;-44
2022/08/09 09:30:22;;;;;;;;;;;26.90;37.40;;;;;;8362122;28;19913;-44
2022/08/09 09:34:22;;;;;;;;;;;26.90;37.40;;;;;;8362067;28;19979;-45
2022/08/09 09:38:37;;;;;;;;;;;26.90;37.40;;;;;;8366197;28;19917;-45
2022/08/09 09:42:38;;;;;;;;;;;26.90;37.40;;;;;;8368030;28;19917;-45
2022/08/09 09:46:40;;;;;;;;;;;27.00;38.00;;;;;;8367655;28;19955;-44
2022/08/09 09:50:41;;;;;;;;;;;27.00;37.40;;;;;;8367047;28;19998;-45
2022/08/09 09:54:42;;;;;;;;;;;27.00;37.40;;;;;;8367389;28;20344;-44
2022/08/09 09:58:44;;;;;;;;;;;27.00;37.30;;;;;;8367546;28;20361;-44
2022/08/09 10:02:45;;;;;;;;;;;27.00;37.30;;;;;;8366744;28;20285;-45
2022/08/09 10:06:46;;;;;;;;;;;27.00;37.20;;;;;;8353654;28;19935;-45
2022/08/09 10:10:46;;;;;;;;;;;27.10;37.30;;;;;;8367060;28;19920;-46
2022/08/09 10:14:47;;;;;;;;;;;27.10;37.30;;;;;;8366128;28;19974;-45
2022/08/09 10:18:49;;;;;;;;;;;27.10;37.30;;;;;;8367217;28;19947;-45
2022/08/09 10:22:54;;;;;;;;;;;27.20;37.30;;;;;;8366315;28;20278;-41
2022/08/09 10:26:55;;;;;;;;;;;27.20;37.30;;;;;;8366602;28;20356;-44
2022/08/09 10:30:57;;;;;;;;;;;27.20;37.20;;;;;;8366452;28;20278;-44
2022/08/09 10:34:58;;;;;;;;;;;27.20;37.20;;;;;;8365576;28;20012;-44
2022/08/09 10:38:58;;;;;;;;;;;27.20;37.20;;;;;;8366341;28;19921;-44
2022/08/09 10:42:59;;;;;;;;;;;27.20;37.20;;;;;;8365866;28;19970;-44
2022/08/09 10:47:05;;;;;;;;;;;27.20;37.20;;;;;;8364388;28;20382;-46
2022/08/09 10:51:07;;;;;;;;;;;27.30;37.20;;;;;;8365502;28;19924;-44
2022/08/09 10:55:18;;;;;;;;;;;27.30;37.20;;;;;;8365604;28;20399;-45
2022/08/09 10:59:21;;;;;;;;;;;27.30;37.20;;;;;;8365106;28;19917;-45
2022/08/09 11:03:23;;;;;;;;;;;27.30;37.10;;;;;;8365053;28;19955;-46
2022/08/09 11:07:24;;;;;;;;;;;27.30;37.10;;;;;;8365349;28;20297;-43
2022/08/09 11:11:45;;;;;;;;;;;27.30;37.10;;;;;;8364481;28;19917;-44
2022/08/09 11:15:48;;;;;;;;;;;27.30;37.10;;;;;;8364742;28;19925;-44
2022/08/09 11:19:49;;;;;;;;;;;27.40;37.00;;;;;;8364982;28;20020;-44
2022/08/09 11:23:58;;;;;;;;;;;27.40;37.10;;;;;;8364153;28;19917;-45
2022/08/09 11:27:59;;;;;;;;;;;27.40;37.10;;;;;;8364615;28;20282;-43
2022/08/09 11:31:59;;;;;;;;;;;27.40;37.10;;;;;;8363836;28;19921;-44
2022/08/09 11:36:00;;;;;;;;;;;27.40;37.00;;;;;;8364101;28;19978;-44
2022/08/09 11:40:04;;;;;;;;;;;27.50;37.10;;;;;;8364369;28;20032;-44
2022/08/09 11:44:05;;;;;;;;;;;27.50;37.10;;;;;;8363578;28;20267;-45
2022/08/09 11:48:11;;;;;;;;;;;27.50;37.00;;;;;;8363908;28;19932;-44
2022/08/09 11:52:11;;;;;;;;;;;27.50;37.00;;;;;;8363676;28;19920;-43
2022/08/09 11:56:14;;;;;;;;;;;27.50;37.00;;;;;;8363127;28;19917;-43
2022/08/09 12:00:15;;;;;;;;;;;27.60;37.10;;;;;;8363425;28;19975;-43
2022/08/09 12:04:17;;;;;;;;;;;27.60;37.00;;;;;;8363491;28;19916;-44
2022/08/09 12:08:18;;;;;;;;;;;27.60;37.00;;;;;;8362724;28;19921;-45
2022/08/09 12:12:18;;;;;;;;;;;27.60;37.00;;;;;;8363230;28;19917;-45
2022/08/09 12:16:28;;;;;;;;;;;27.70;37.00;;;;;;8363211;28;20297;-44
2022/08/09 12:20:29;;;;;;;;;;;27.70;37.60;;;;;;8362987;28;20338;-44
2022/08/09 12:24:30;;;;;;;;;;;27.70;37.00;;;;;;8363441;28;20381;-45
2022/08/09 12:28:30;;;;;;;;;;;27.70;37.00;;;;;;8363187;28;19921;-44
2022/08/09 12:32:31;;;;;;;;;;;27.70;37.00;;;;;;8362409;28;19924;-44
2022/08/09 12:36:31;;;;;;;;;;;27.70;36.90;;;;;;8363020;28;19917;-44
2022/08/09 12:40:42;;;;;;;;;;;27.80;36.90;;;;;;8363292;28;20382;-44
2022/08/09 12:44:42;;;;;;;;;;;27.80;36.90;;;;;;8362791;28;19917;-44
2022/08/09 12:48:43;;;;;;;;;;;27.80;36.90;;;;;;8362856;28;20011;-44
2022/08/09 12:52:44;;;;;;;;;;;27.90;36.90;;;;;;8358517;28;20390;-45
2022/08/09 12:56:46;;;;;;;;;;;27.90;36.90;;;;;;8339521;28;19917;-44
2022/08/09 13:00:47;;;;;;;;;;;27.90;36.90;;;;;;8362845;28;19920;-44
2022/08/09 13:04:58;;;;;;;;;;;27.90;36.80;;;;;;8362099;28;19921;-45
2022/08/09 13:09:01;;;;;;;;;;;27.90;36.70;;;;;;8362292;28;20003;-45
2022/08/09 13:13:01;;;;;;;;;;;27.90;36.70;;;;;;8366644;28;19928;-44
2022/08/09 13:17:05;;;;;;;;;;;28.00;36.70;;;;;;8368326;28;19978;-45
2022/08/09 13:21:16;;;;;;;;;;;28.00;36.60;;;;;;8369026;28;19917;-45
2022/08/09 13:25:17;;;;;;;;;;;28.00;36.60;;;;;;8368708;28;19913;-43
2022/08/09 13:29:19;;;;;;;;;;;28.00;36.70;;;;;;8367705;28;19917;-44
2022/08/09 13:33:20;;;;;;;;;;;28.00;36.60;;;;;;8368338;28;19924;-44
2022/08/09 13:37:21;;;;;;;;;;;28.00;36.60;;;;;;8368178;28;20365;-44
2022/08/09 13:41:22;;;;;;;;;;;28.00;36.60;;;;;;8367445;28;19919;-44
2022/08/09 13:45:22;;;;;;;;;;;28.00;36.50;;;;;;8368064;28;19920;-45
2022/08/09 13:49:22;;;;;;;;;;;28.10;36.60;;;;;;8367671;28;19924;-44
2022/08/09 13:53:23;;;;;;;;;;;28.10;36.60;;;;;;8366954;28;20446;-44
2022/08/09 13:57:24;;;;;;;;;;;28.10;36.70;;;;;;8367745;28;19971;-45
2022/08/09 14:01:24;;;;;;;;;;;28.10;36.60;;;;;;8367260;28;19920;-44
2022/08/09 14:05:25;;;;;;;;;;;28.10;36.60;;;;;;8367011;28;19920;-44
2022/08/09 14:09:26;;;;;;;;;;;28.10;36.60;;;;;;8367140;28;19924;-44
2022/08/09 14:13:27;;;;;;;;;;;28.10;36.60;;;;;;8366824;28;19925;-43
2022/08/09 14:17:27;;;;;;;;;;;28.10;36.60;;;;;;8366286;28;19955;-43
2022/08/09 14:21:27;;;;;;;;;;;28.10;36.60;;;;;;8366434;28;19917;-45
2022/08/09 14:25:28;;;;;;;;;;;28.10;36.60;;;;;;8367394;28;19912;-45
2022/08/09 14:29:28;;;;;;;;;;;28.10;37.10;;;;;;8366050;28;19917;-44
2022/08/09 14:33:29;;;;;;;;;;;28.10;36.50;;;;;;8366271;28;19971;-45
2022/08/09 14:37:29;;;;;;;;;;;28.10;36.50;;;;;;8366789;28;20387;-45
2022/08/09 14:41:30;;;;;;;;;;;28.10;36.50;;;;;;8365915;28;19920;-45
2022/08/09 14:45:30;;;;;;;;;;;28.20;36.60;;;;;;8366236;28;19917;-45
2022/08/09 14:49:31;;;;;;;;;;;28.20;36.60;;;;;;8365869;28;19917;-45
2022/08/09 14:53:31;;;;;;;;;;;28.20;36.60;;;;;;8365028;28;19925;-46
2022/08/09 14:57:32;;;;;;;;;;;28.20;36.60;;;;;;8365510;28;19982;-44
2022/08/09 15:01:32;;;;;;;;;;;28.20;36.60;;;;;;8365686;28;20374;-44
2022/08/09 15:05:33;;;;;;;;;;;28.20;36.60;;;;;;8364864;28;19921;-45
2022/08/09 15:09:33;;;;;;;;;;;28.20;36.50;;;;;;8365267;28;19923;-45
2022/08/09 15:13:34;;;;;;;;;;;28.20;36.60;;;;;;8365131;28;19971;-45
2022/08/09 15:17:35;;;;;;;;;;;28.20;36.50;;;;;;8364488;28;19917;-45
2022/08/09 15:21:35;;;;;;;;;;;28.20;36.50;;;;;;8365059;28;19982;-44
2022/08/09 15:25:35;;;;;;;;;;;28.20;36.50;;;;;;8364700;28;19916;-46
2022/08/09 15:29:36;;;;;;;;;;;28.20;36.50;;;;;;8364061;28;19994;-45
2022/08/09 15:33:37;;;;;;;;;;;28.20;36.40;;;;;;8363635;28;20031;-44
2022/08/09 15:37:37;;;;;;;;;;;28.20;36.50;;;;;;8364352;28;20007;-44
2022/08/09 15:41:38;;;;;;;;;;;28.20;36.40;;;;;;8351093;28;19914;-45
2022/08/09 15:45:40;;;;;;;;;;;28.20;36.50;;;;;;8363996;28;19975;-45
2022/08/09 15:49:40;;;;;;;;;;;28.20;36.50;;;;;;8363870;28;19921;-45
2022/08/09 15:53:40;;;;;;;;;;;28.20;36.50;;;;;;8363425;28;20431;-44
2022/08/09 15:57:41;;;;;;;;;;;28.20;36.40;;;;;;8363997;28;19920;-44
2022/08/09 16:01:41;;;;;;;;;;;28.20;36.40;;;;;;8363821;28;19923;-44
2022/08/09 16:05:42;;;;;;;;;;;28.20;36.40;;;;;;8362858;28;19921;-44
2022/08/09 16:09:42;;;;;;;;;;;28.20;36.40;;;;;;8362803;28;19917;-45
2022/08/09 16:13:43;;;;;;;;;;;28.20;36.40;;;;;;8364026;28;19924;-44
2022/08/09 16:17:43;;;;;;;;;;;28.20;36.40;;;;;;8362612;28;19953;-44
2022/08/09 16:21:45;;;;;;;;;;;28.20;36.40;;;;;;8363568;28;20297;-44
2022/08/09 16:25:46;;;;;;;;;;;28.20;36.40;;;;;;8363160;28;19928;-44
2022/08/09 16:29:46;;;;;;;;;;;28.20;36.40;;;;;;8362558;28;19916;-44
2022/08/09 16:33:46;;;;;;;;;;;28.20;36.40;;;;;;8363440;28;19936;-44
2022/08/09 16:37:47;;;;;;;;;;;28.20;36.40;;;;;;8362964;28;19921;-45
2022/08/09 16:41:47;;;;;;;;;;;28.20;36.40;;;;;;8362863;28;20342;-45
2022/08/09 16:45:48;;;;;;;;;;;28.20;36.40;;;;;;8365795;28;19923;-45
2022/08/09 16:49:48;;;;;;;;;;;28.20;36.40;;;;;;8369533;28;19912;-45
2022/08/09 16:53:49;;;;;;;;;;;28.20;36.40;;;;;;8368919;28;20271;-46
2022/08/09 16:57:49;;;;;;;;;;;28.20;36.40;;;;;;8369259;28;20003;-45
2022/08/09 17:01:50;;;;;;;;;;;28.20;36.90;;;;;;8369590;28;19921;-44
2022/08/09 17:05:51;;;;;;;;;;;28.20;36.40;;;;;;8368995;28;19942;-45
2022/08/09 17:09:51;;;;;;;;;;;28.20;36.40;;;;;;8369458;28;19917;-45
2022/08/09 17:13:52;;;;;;;;;;;28.20;36.40;;;;;;8368304;28;19932;-45
2022/08/09 17:17:52;;;;;;;;;;;28.20;36.40;;;;;;8368663;28;19925;-44
2022/08/09 17:21:54;;;;;;;;;;;28.20;36.40;;;;;;8369103;28;19913;-46
2022/08/09 17:25:54;;;;;;;;;;;28.20;36.40;;;;;;8368282;28;20336;-46
2022/08/09 17:29:55;;;;;;;;;;;28.20;36.40;;;;;;8368354;28;19917;-44
2022/08/09 17:33:55;;;;;;;;;;;28.20;36.40;;;;;;8368099;28;19960;-43
2022/08/09 17:37:56;;;;;;;;;;;28.20;36.40;;;;;;8367947;28;19967;-45
2022/08/09 17:41:57;;;;;;;;;;;28.20;36.40;;;;;;8368435;28;20386;-45
2022/08/09 17:45:57;;;;;;;;;;;28.20;36.40;;;;;;8368290;28;19974;-45
2022/08/09 17:49:58;;;;;;;;;;;28.20;36.40;;;;;;8367565;28;19928;-45
2022/08/09 17:54:00;;;;;;;;;;;28.20;36.40;;;;;;8367548;28;20416;-44
2022/08/09 17:58:00;;;;;;;;;;;28.20;36.40;;;;;;8366781;28;19917;-45
2022/08/09 18:02:01;;;;;;;;;;;28.10;36.30;;;;;;8367148;28;20008;-45
2022/08/09 18:06:01;;;;;;;;;;;28.10;36.30;;;;;;8367097;28;20003;-45
2022/08/09 18:10:02;;;;;;;;;;;28.10;36.30;;;;;;8367061;28;20325;-45
2022/08/09 18:14:03;;;;;;;;;;;28.10;36.30;;;;;;8366362;28;19924;-43
2022/08/09 18:18:04;;;;;;;;;;;28.10;36.30;;;;;;8367148;28;20007;-45
2022/08/09 18:22:04;;;;;;;;;;;28.10;36.30;;;;;;8367442;28;19920;-45
2022/08/09 18:26:05;;;;;;;;;;;28.10;36.40;;;;;;8366458;28;19924;-46
2022/08/09 18:30:05;;;;;;;;;;;28.10;36.40;;;;;;8366488;28;19948;-44
2022/08/09 18:34:06;;;;;;;;;;;28.10;36.50;;;;;;8366206;28;19932;-45
2022/08/09 18:38:06;;;;;;;;;;;28.10;36.50;;;;;;8366109;28;19967;-45
2022/08/09 18:42:07;;;;;;;;;;;28.10;36.50;;;;;;8366741;28;20336;-44
2022/08/09 18:46:07;;;;;;;;;;;28.10;36.50;;;;;;8366029;28;19924;-44
2022/08/09 18:50:08;;;;;;;;;;;28.10;36.50;;;;;;8365399;28;19922;-44
2022/08/09 18:54:08;;;;;;;;;;;28.10;36.50;;;;;;8366043;28;19948;-44
2022/08/09 18:58:09;;;;;;;;;;;28.10;36.50;;;;;;8366404;28;20408;-45
2022/08/09 19:02:09;;;;;;;;;;;28.10;36.50;;;;;;8365079;28;19978;-45
2022/08/09 19:06:10;;;;;;;;;;;28.00;36.50;;;;;;8365415;28;19928;-45
2022/08/09 19:10:10;;;;;;;;;;;28.00;36.60;;;;;;8363575;28;19921;-44
2022/08/09 19:14:11;;;;;;;;;;;28.00;36.50;;;;;;8364790;28;19925;-45
2022/08/09 19:18:12;;;;;;;;;;;28.00;36.60;;;;;;8365653;28;19917;-46
2022/08/09 19:22:12;;;;;;;;;;;28.00;36.60;;;;;;8365063;28;19962;-45
2022/08/09 19:26:13;;;;;;;;;;;28.00;36.50;;;;;;8364686;28;19924;-44
2022/08/09 19:30:14;;;;;;;;;;;28.00;36.50;;;;;;8365025;28;19970;-44
2022/08/09 19:34:21;;;;;;;;;;;28.00;36.50;;;;;;8425144;27;19943;-45
2022/08/09 19:38:22;;;;;;;;;;;28.00;36.60;;;;;;8425412;28;19923;-45
2022/08/09 19:42:22;;;;;;;;;;;28.00;36.50;;;;;;8425566;28;20012;-45
2022/08/09 19:46:23;;;;;;;;;;;28.00;36.50;;;;;;8425705;28;20289;-45
2022/08/09 19:50:23;;;;;;;;;;;28.00;36.50;;;;;;8424594;28;19916;-45
2022/08/09 19:54:25;;;;;;;;;;;28.00;36.50;;;;;;8424014;28;19916;-46
2022/08/09 19:58:26;;;;;;;;;;;28.00;36.50;;;;;;8425095;28;19924;-46
2022/08/09 20:02:27;;;;;;;;;;;27.90;36.50;;;;;;8424330;28;19920;-46
2022/08/09 20:06:27;;;;;;;;;;;28.00;36.50;;;;;;8424579;28;19924;-46
2022/08/09 20:10:28;;;;;;;;;;;27.90;36.50;;;;;;8424796;28;20046;-45
2022/08/09 20:14:28;;;;;;;;;;;27.90;36.50;;;;;;8422679;28;19920;-43
2022/08/09 20:18:29;;;;;;;;;;;27.90;36.50;;;;;;8424324;28;19916;-45
2022/08/09 20:22:30;;;;;;;;;;;27.90;36.50;;;;;;8423955;28;20336;-44
2022/08/09 20:26:30;;;;;;;;;;;27.90;36.50;;;;;;8423804;28;19916;-45
2022/08/09 20:30:31;;;;;;;;;;;27.90;36.50;;;;;;8425586;28;19916;-44
2022/08/09 20:34:31;;;;;;;;;;;27.90;36.50;;;;;;8457450;28;19916;-44
2022/08/09 20:38:32;;;;;;;;;;;27.90;36.40;;;;;;8431749;28;19969;-45
2022/08/09 20:42:32;;;;;;;;;;;27.90;36.40;;;;;;8438212;28;19917;-45
2022/08/09 20:46:33;;;;;;;;;;;27.90;36.40;;;;;;8423738;28;19916;-45
2022/08/09 20:50:33;;;;;;;;;;;27.90;36.50;;;;;;8408710;28;19923;-44
2022/08/09 20:54:33;;;;;;;;;;;27.90;36.40;;;;;;8419805;28;20354;-45
2022/08/09 20:58:34;;;;;;;;;;;27.90;36.50;;;;;;8423742;28;19916;-45
2022/08/09 21:02:35;;;;;;;;;;;27.90;36.50;;;;;;8408536;28;19920;-45
2022/08/09 21:06:36;;;;;;;;;;;27.80;36.40;;;;;;8419565;28;19928;-46
2022/08/09 21:10:36;;;;;;;;;;;27.90;36.50;;;;;;8423496;28;20373;-45
2022/08/09 21:14:38;;;;;;;;;;;27.80;36.40;;;;;;8407939;28;19966;-46
2022/08/09 21:18:38;;;;;;;;;;;27.80;36.40;;;;;;8418609;28;20309;-45
2022/08/09 21:22:40;;;;;;;;;;;27.80;36.40;;;;;;8423609;28;19923;-44
2022/08/09 21:26:40;;;;;;;;;;;27.80;36.40;;;;;;8407617;28;19917;-45
2022/08/09 21:30:41;;;;;;;;;;;27.80;36.40;;;;;;8417486;28;19951;-46
2022/08/09 21:34:41;;;;;;;;;;;27.80;36.50;;;;;;8423531;28;20283;-43
2022/08/09 21:38:42;;;;;;;;;;;27.80;36.40;;;;;;8389542;28;19912;-44
2022/08/09 21:42:42;;;;;;;;;;;27.80;36.40;;;;;;8417323;28;20014;-45
2022/08/09 21:46:43;;;;;;;;;;;27.80;36.40;;;;;;8381159;28;19916;-44
2022/08/09 21:50:43;;;;;;;;;;;27.80;36.50;;;;;;8423510;28;19928;-45
2022/08/09 21:54:44;;;;;;;;;;;27.80;36.50;;;;;;8413760;28;20278;-44
2022/08/09 21:58:45;;;;;;;;;;;27.70;36.40;;;;;;8408044;28;19912;-44
2022/08/09 22:02:46;;;;;;;;;;;27.70;36.40;;;;;;8402920;28;19924;-46
2022/08/09 22:06:47;;;;;;;;;;;27.70;36.40;;;;;;8378810;28;19916;-45
2022/08/09 22:10:48;;;;;;;;;;;27.70;36.40;;;;;;8375970;28;19925;-47
2022/08/09 22:14:48;;;;;;;;;;;27.70;36.50;;;;;;8397921;28;19947;-45
2022/08/09 22:18:49;;;;;;;;;;;27.70;36.50;;;;;;8398391;28;19916;-45
2022/08/09 22:22:49;;;;;;;;;;;27.70;36.50;;;;;;8397903;28;19916;-46
2022/08/09 22:26:50;;;;;;;;;;;27.70;36.50;;;;;;8397403;28;19917;-46
2022/08/09 22:30:50;;;;;;;;;;;27.60;36.40;;;;;;8397756;28;20015;-45
2022/08/09 22:34:51;;;;;;;;;;;27.70;36.50;;;;;;8397330;28;19961;-45
2022/08/09 22:38:52;;;;;;;;;;;27.60;36.40;;;;;;8397948;28;20385;-45
2022/08/09 22:42:52;;;;;;;;;;;27.60;36.40;;;;;;8397307;28;20033;-45
2022/08/09 22:46:53;;;;;;;;;;;27.60;36.40;;;;;;8396943;28;19917;-45
2022/08/09 22:50:53;;;;;;;;;;;27.60;36.40;;;;;;8397095;28;19925;-45
2022/08/09 22:54:54;;;;;;;;;;;27.60;36.40;;;;;;8397464;28;20319;-44
2022/08/09 22:58:54;;;;;;;;;;;27.60;36.40;;;;;;8396819;28;19917;-45
2022/08/09 23:02:55;;;;;;;;;;;27.60;36.40;;;;;;8396881;28;20293;-43
2022/08/09 23:11:16;;;;;;;;;;;27.60;36.40;;;;;;8396674;28;20458;-45
2022/08/09 23:15:16;;;;;;;;;;;27.50;36.40;;;;;;8397098;28;19924;-46
2022/08/09 23:19:17;;;;;;;;;;;27.50;36.40;;;;;;8396852;28;20049;-44
2022/08/09 23:23:17;;;;;;;;;;;27.50;36.40;;;;;;8396196;28;20429;-45
2022/08/09 23:27:18;;;;;;;;;;;27.50;36.40;;;;;;8396685;28;20003;-45